Time;durP1;ratioP1;P1;durP2;ratioP2;P2;SDS_P1;SDS_P2;PMS_P1;PMS_P2;Temp;Humidity;BMP_temperature;BMP_pressure;BME280_temperature;BME280_humidity;BME280_pressure;Samples;Min_cycle;Max_cycle;Signal;HPM_P1;HPM_P2
2022/03/01 00:00:17;;;;;;;17.17;10.47;;;1.20;99.90;;;;;;4991585;28;21065;-70
2022/03/01 00:02:44;;;;;;;17.03;9.90;;;1.20;99.90;;;;;;4990968;28;20451;-70
2022/03/01 00:05:11;;;;;;;17.43;9.83;;;1.20;99.90;;;;;;4991143;28;20575;-70
2022/03/01 00:07:38;;;;;;;19.97;10.57;;;1.30;99.90;;;;;;4990757;28;20520;-70
2022/03/01 00:10:06;;;;;;;19.40;9.60;;;1.10;99.90;;;;;;4990854;28;20448;-70
2022/03/01 00:12:34;;;;;;;21.43;9.73;;;1.10;99.90;;;;;;4991673;28;20473;-70
2022/03/01 00:15:01;;;;;;;18.00;9.33;;;1.10;99.90;;;;;;4990965;28;20839;-70
2022/03/01 00:17:27;;;;;;;16.63;9.80;;;1.10;99.90;;;;;;4991247;28;20486;-69
2022/03/01 00:19:54;;;;;;;16.43;9.57;;;1.10;99.90;;;;;;4989727;28;20510;-69
2022/03/01 00:22:21;;;;;;;16.77;9.30;;;1.00;99.90;;;;;;4991517;28;20451;-69
2022/03/01 00:24:48;;;;;;;14.80;9.13;;;0.90;99.90;;;;;;4991075;28;20517;-69
2022/03/01 00:27:14;;;;;;;17.10;9.73;;;1.00;99.90;;;;;;4990661;28;20482;-71
2022/03/01 00:29:42;;;;;;;16.97;9.53;;;1.00;99.90;;;;;;4991440;28;20509;-70
2022/03/01 00:32:10;;;;;;;17.53;9.23;;;1.00;99.90;;;;;;4990205;28;20966;-70
2022/03/01 00:34:37;;;;;;;18.83;9.23;;;1.00;99.90;;;;;;4991086;28;20459;-70
2022/03/01 00:37:04;;;;;;;18.43;9.63;;;1.00;99.90;;;;;;4990662;28;20486;-70
2022/03/01 00:39:30;;;;;;;17.70;10.00;;;1.00;99.90;;;;;;4985166;28;20501;-70
2022/03/01 00:41:57;;;;;;;18.27;8.80;;;1.00;99.90;;;;;;4989280;28;20493;-70
2022/03/01 00:44:24;;;;;;;16.90;10.17;;;1.10;99.90;;;;;;4989886;28;20867;-70
2022/03/01 00:46:52;;;;;;;17.30;9.20;;;1.00;99.90;;;;;;4989644;28;21412;-70
2022/03/01 00:49:18;;;;;;;17.10;9.43;;;1.00;99.90;;;;;;4990024;28;21022;-70
2022/03/01 00:51:45;;;;;;;18.30;9.70;;;0.90;99.90;;;;;;4990850;28;20451;-70
2022/03/01 00:54:12;;;;;;;17.23;9.00;;;0.90;99.90;;;;;;4989273;28;20537;-70
2022/03/01 00:56:38;;;;;;;17.73;9.27;;;0.90;99.90;;;;;;4990149;28;20479;-70
2022/03/01 00:59:05;;;;;;;17.23;10.30;;;0.80;99.90;;;;;;4990588;28;20511;-70
2022/03/01 01:01:32;;;;;;;20.43;10.93;;;0.80;99.90;;;;;;4990002;28;20489;-70
2022/03/01 01:04:00;;;;;;;31.40;10.53;;;0.70;99.90;;;;;;4989726;28;20502;-70
2022/03/01 01:06:27;;;;;;;21.30;10.10;;;0.70;99.90;;;;;;4990335;28;21117;-70
2022/03/01 01:08:53;;;;;;;20.90;10.97;;;0.80;99.90;;;;;;4990359;28;21018;-70
2022/03/01 01:11:20;;;;;;;19.87;9.80;;;0.60;99.90;;;;;;4990293;28;20955;-70
2022/03/01 01:13:47;;;;;;;20.67;9.90;;;0.60;99.90;;;;;;4989616;28;20498;-70
2022/03/01 01:16:13;;;;;;;19.70;10.33;;;0.60;99.90;;;;;;4989795;28;21003;-70
2022/03/01 01:18:43;;;;;;;22.63;11.23;;;0.60;99.90;;;;;;4989042;28;20978;-70
2022/03/01 01:21:11;;;;;;;18.83;9.97;;;0.60;99.90;;;;;;4989904;28;20537;-70
2022/03/01 01:23:38;;;;;;;21.60;10.33;;;0.60;99.90;;;;;;4989587;28;20920;-70
2022/03/01 01:26:05;;;;;;;24.80;11.03;;;0.60;99.90;;;;;;4990030;28;20796;-70
2022/03/01 01:28:31;;;;;;;19.57;10.70;;;0.50;99.90;;;;;;4990390;28;20451;-70
2022/03/01 01:30:58;;;;;;;21.63;10.93;;;0.40;99.90;;;;;;4989242;28;20455;-70
2022/03/01 01:33:25;;;;;;;20.13;10.87;;;0.30;99.90;;;;;;4993739;28;20501;-70
2022/03/01 01:35:51;;;;;;;21.80;10.60;;;0.30;99.90;;;;;;4994405;28;20941;-70
2022/03/01 01:38:19;;;;;;;18.77;9.50;;;0.20;99.90;;;;;;4994623;28;20459;-70
2022/03/01 01:40:46;;;;;;;17.30;9.30;;;0.20;99.90;;;;;;4994033;28;21053;-70
2022/03/01 01:43:13;;;;;;;17.93;10.30;;;0.20;99.90;;;;;;4993586;28;20956;-70
2022/03/01 01:45:39;;;;;;;25.33;10.17;;;0.20;99.90;;;;;;4993700;28;20509;-70
2022/03/01 01:48:06;;;;;;;20.73;10.33;;;0.20;99.90;;;;;;4993078;28;20866;-70
2022/03/01 01:50:34;;;;;;;19.90;10.43;;;0.20;99.90;;;;;;4993711;28;20498;-70
2022/03/01 01:53:01;;;;;;;17.90;8.93;;;0.20;99.90;;;;;;4993465;28;21291;-70
2022/03/01 01:55:29;;;;;;;23.13;10.87;;;0.10;99.90;;;;;;4994162;28;20474;-70
2022/03/01 01:57:57;;;;;;;22.03;10.40;;;0.10;99.90;;;;;;4993226;28;20823;-70
2022/03/01 02:00:24;;;;;;;18.13;9.40;;;0.10;99.90;;;;;;4993684;28;20893;-70
2022/03/01 02:02:51;;;;;;;22.17;10.30;;;0.00;99.90;;;;;;4993257;28;20797;-70
2022/03/01 02:05:17;;;;;;;19.60;10.13;;;0.00;99.90;;;;;;4993885;28;20479;-70
2022/03/01 02:07:46;;;;;;;18.80;10.20;;;0.00;99.90;;;;;;4993510;28;20458;-70
2022/03/01 02:10:13;;;;;;;25.20;10.73;;;0.00;99.90;;;;;;4993535;28;20455;-70
2022/03/01 02:12:41;;;;;;;27.23;10.67;;;0.00;99.90;;;;;;4990339;28;20474;-70
2022/03/01 02:15:09;;;;;;;20.03;10.97;;;-0.10;99.90;;;;;;4992208;28;20467;-70
2022/03/01 02:17:38;;;;;;;25.90;9.80;;;-0.10;99.90;;;;;;4993693;28;20461;-70
2022/03/01 02:20:09;;;;;;;24.17;10.57;;;-0.10;99.90;;;;;;4992800;28;20986;-70
2022/03/01 02:22:36;;;;;;;21.00;10.93;;;-0.20;99.90;;;;;;4993096;28;20998;-70
2022/03/01 02:25:03;;;;;;;21.43;9.80;;;-0.10;99.90;;;;;;4993150;28;20537;-70
2022/03/01 02:27:30;;;;;;;24.40;10.37;;;-0.20;99.90;;;;;;4993668;28;20943;-70
2022/03/01 02:29:56;;;;;;;21.43;9.93;;;-0.20;99.90;;;;;;4993446;28;20509;-70
2022/03/01 02:32:23;;;;;;;24.80;10.70;;;-0.20;99.90;;;;;;4993535;28;20501;-70
2022/03/01 02:34:50;;;;;;;21.47;10.63;;;-0.20;99.90;;;;;;4992754;28;20517;-70
2022/03/01 02:37:18;;;;;;;27.27;10.83;;;-0.30;99.90;;;;;;4992853;28;20502;-70
2022/03/01 02:39:44;;;;;;;23.03;10.83;;;-0.30;99.90;;;;;;4993140;28;20509;-70
2022/03/01 02:42:11;;;;;;;27.37;11.10;;;-0.20;99.90;;;;;;4992473;28;20487;-70
2022/03/01 02:44:38;;;;;;;15.57;9.23;;;-0.20;99.90;;;;;;4991953;28;20455;-70
2022/03/01 02:47:05;;;;;;;23.20;10.50;;;-0.20;99.90;;;;;;4991769;28;20496;-70
2022/03/01 02:49:32;;;;;;;20.83;10.17;;;-0.20;99.90;;;;;;4992584;28;20447;-70
2022/03/01 02:51:58;;;;;;;24.77;11.17;;;-0.30;99.90;;;;;;4992593;28;20455;-70
2022/03/01 02:54:26;;;;;;;22.93;10.70;;;-0.30;99.90;;;;;;4992935;28;20868;-70
2022/03/01 02:56:53;;;;;;;19.60;10.23;;;-0.30;99.90;;;;;;4992657;28;20474;-70
2022/03/01 02:59:19;;;;;;;27.50;11.33;;;-0.20;99.90;;;;;;4986547;28;20456;-70
2022/03/01 03:01:46;;;;;;;21.60;10.43;;;-0.20;99.90;;;;;;4991834;28;20479;-70
2022/03/01 03:04:13;;;;;;;22.30;11.00;;;-0.30;99.90;;;;;;4992713;28;20467;-70
2022/03/01 03:06:40;;;;;;;19.53;9.50;;;-0.30;99.90;;;;;;4992529;28;20471;-70
2022/03/01 03:09:07;;;;;;;23.63;10.43;;;-0.20;99.90;;;;;;4992536;28;20452;-70
2022/03/01 03:11:35;;;;;;;26.90;10.20;;;-0.30;99.90;;;;;;4992265;28;20506;-70
2022/03/01 03:14:01;;;;;;;24.20;10.70;;;-0.30;99.90;;;;;;4991657;28;20447;-70
2022/03/01 03:16:28;;;;;;;21.07;10.23;;;-0.30;99.90;;;;;;4992230;28;20529;-70
2022/03/01 03:18:55;;;;;;;21.20;10.60;;;-0.30;99.90;;;;;;4992677;28;20502;-70
2022/03/01 03:21:21;;;;;;;27.50;11.80;;;-0.40;99.90;;;;;;4986649;28;20479;-70
2022/03/01 03:23:48;;;;;;;26.10;11.40;;;-0.30;99.90;;;;;;4992083;28;20454;-70
2022/03/01 03:26:15;;;;;;;23.83;10.77;;;-0.40;99.90;;;;;;4992147;28;20533;-70
2022/03/01 03:28:43;;;;;;;23.37;10.77;;;-0.40;99.90;;;;;;4991999;28;20948;-70
2022/03/01 03:31:10;;;;;;;22.47;11.20;;;-0.50;99.90;;;;;;4991640;28;20538;-70
2022/03/01 03:33:36;;;;;;;25.13;12.03;;;-0.40;99.90;;;;;;4991977;28;20926;-70
2022/03/01 03:36:03;;;;;;;25.27;11.70;;;-0.40;99.90;;;;;;4991813;28;20483;-70
2022/03/01 03:38:30;;;;;;;27.73;11.07;;;-0.60;99.90;;;;;;4991273;28;20956;-70
2022/03/01 03:40:56;;;;;;;25.23;10.80;;;-0.50;99.90;;;;;;4991530;28;20931;-70
2022/03/01 03:43:23;;;;;;;27.93;11.70;;;-0.60;99.90;;;;;;4991406;28;20451;-70
2022/03/01 03:45:51;;;;;;;41.00;11.80;;;-0.60;99.90;;;;;;4991607;28;21033;-70
2022/03/01 03:48:18;;;;;;;20.63;10.67;;;-0.50;99.90;;;;;;4991991;28;20447;-70
2022/03/01 03:50:45;;;;;;;23.60;11.13;;;-0.70;99.90;;;;;;4991543;28;20471;-70
2022/03/01 03:53:12;;;;;;;19.30;10.03;;;-0.70;99.90;;;;;;4991140;28;20447;-71
2022/03/01 03:55:39;;;;;;;19.83;10.30;;;-0.70;99.90;;;;;;4991228;28;21179;-70
2022/03/01 03:58:05;;;;;;;22.07;10.63;;;-0.70;99.90;;;;;;4991465;28;20463;-70
2022/03/01 04:00:32;;;;;;;30.93;12.23;;;-0.80;99.90;;;;;;4991492;28;20486;-71
2022/03/01 04:03:00;;;;;;;27.80;11.37;;;-0.80;99.90;;;;;;4991389;28;20541;-70
2022/03/01 04:05:27;;;;;;;21.07;10.13;;;-0.80;99.90;;;;;;4991026;28;20543;-71
2022/03/01 04:07:54;;;;;;;25.00;11.50;;;-0.80;99.90;;;;;;4991013;28;20494;-70
2022/03/01 04:10:21;;;;;;;20.67;10.10;;;-0.80;99.90;;;;;;4991194;28;20447;-71
2022/03/01 04:12:47;;;;;;;29.27;11.97;;;-0.90;99.90;;;;;;4991025;28;20458;-70
2022/03/01 04:15:14;;;;;;;23.57;10.80;;;-0.90;99.90;;;;;;4989619;28;20533;-71
2022/03/01 04:17:41;;;;;;;21.20;10.77;;;-0.80;99.90;;;;;;4991764;28;20451;-70
2022/03/01 04:20:11;;;;;;;22.03;10.60;;;-0.90;99.90;;;;;;4991148;28;20454;-70
2022/03/01 04:22:38;;;;;;;21.67;10.57;;;-0.90;99.90;;;;;;4991034;28;20947;-71
2022/03/01 04:25:07;;;;;;;24.90;11.60;;;-0.90;99.90;;;;;;4990284;28;20529;-70
2022/03/01 04:27:34;;;;;;;23.27;10.90;;;-0.90;99.90;;;;;;4991484;28;20446;-70
2022/03/01 04:30:00;;;;;;;26.57;11.63;;;-1.00;99.90;;;;;;4990678;28;20486;-71
2022/03/01 04:32:27;;;;;;;21.83;11.20;;;-1.00;99.90;;;;;;4991100;28;20505;-70
2022/03/01 04:34:54;;;;;;;29.30;10.97;;;-1.00;99.90;;;;;;4990531;28;20877;-71
2022/03/01 04:37:22;;;;;;;33.97;11.20;;;-1.10;99.90;;;;;;4990518;28;20959;-70
2022/03/01 04:39:48;;;;;;;22.10;11.30;;;-1.10;99.90;;;;;;4990306;28;20800;-70
2022/03/01 04:42:15;;;;;;;27.40;11.43;;;-1.10;99.90;;;;;;4990680;28;20490;-70
2022/03/01 04:44:41;;;;;;;26.67;12.10;;;-1.10;99.90;;;;;;4990247;28;21013;-70
2022/03/01 04:47:08;;;;;;;20.80;11.10;;;-1.10;99.90;;;;;;4990528;28;20502;-70
2022/03/01 04:49:35;;;;;;;29.70;12.90;;;-1.20;99.90;;;;;;4991207;28;20452;-71
2022/03/01 04:52:02;;;;;;;27.67;12.50;;;-1.20;99.90;;;;;;4990753;28;20502;-70
2022/03/01 04:54:30;;;;;;;27.77;11.57;;;-1.30;99.90;;;;;;4990861;28;20463;-70
2022/03/01 04:56:57;;;;;;;24.17;12.57;;;-1.30;99.90;;;;;;4990046;28;20471;-70
2022/03/01 04:59:23;;;;;;;27.30;12.00;;;-1.30;99.90;;;;;;4990270;28;20494;-71
2022/03/01 05:01:50;;;;;;;33.47;12.10;;;-1.30;99.90;;;;;;4989896;28;20483;-71
2022/03/01 05:04:17;;;;;;;26.43;12.23;;;-1.40;99.90;;;;;;4989289;28;20955;-70
2022/03/01 05:06:44;;;;;;;23.27;11.30;;;-1.40;99.90;;;;;;4990042;28;21053;-71
2022/03/01 05:09:12;;;;;;;33.97;13.00;;;-1.40;99.90;;;;;;4990764;28;20567;-71
2022/03/01 05:11:40;;;;;;;32.17;11.53;;;-1.30;99.90;;;;;;4990001;28;20459;-70
2022/03/01 05:14:07;;;;;;;31.07;12.90;;;-1.50;99.90;;;;;;4990023;28;20653;-70
2022/03/01 05:16:33;;;;;;;22.53;11.33;;;-1.50;99.90;;;;;;4990306;28;20557;-71
2022/03/01 05:19:00;;;;;;;25.03;12.57;;;-1.50;99.90;;;;;;4988025;28;20980;-71
2022/03/01 05:21:27;;;;;;;22.13;11.27;;;-1.50;99.90;;;;;;4990457;28;20451;-70
2022/03/01 05:23:53;;;;;;;29.33;13.10;;;-1.50;99.90;;;;;;4989947;28;20455;-71
2022/03/01 05:26:20;;;;;;;33.30;14.93;;;-1.60;99.90;;;;;;4990406;28;20471;-71
2022/03/01 05:28:48;;;;;;;28.53;11.90;;;-1.10;99.90;;;;;;4990096;28;20522;-71
2022/03/01 05:31:15;;;;;;;29.90;12.30;;;-1.60;99.90;;;;;;4990050;28;21003;-71
2022/03/01 05:33:41;;;;;;;32.83;12.10;;;-1.70;99.90;;;;;;4990077;28;20452;-71
2022/03/01 05:36:08;;;;;;;30.00;12.27;;;-1.70;99.90;;;;;;4988251;28;20475;-71
2022/03/01 05:38:35;;;;;;;27.63;11.60;;;-1.70;99.90;;;;;;4990197;28;20451;-71
2022/03/01 05:41:01;;;;;;;24.23;11.90;;;-1.70;99.90;;;;;;4989620;28;20823;-72
2022/03/01 05:43:28;;;;;;;25.00;11.50;;;-1.80;99.90;;;;;;4983773;28;20517;-71
2022/03/01 05:45:56;;;;;;;26.27;11.17;;;-1.80;99.90;;;;;;4989735;28;20475;-71
2022/03/01 05:48:23;;;;;;;28.30;11.17;;;-1.80;99.90;;;;;;4990237;28;20463;-71
2022/03/01 05:50:50;;;;;;;22.73;11.53;;;-1.80;99.90;;;;;;4989294;28;21009;-71
2022/03/01 05:53:17;;;;;;;23.73;11.20;;;-1.80;99.90;;;;;;4989833;28;20879;-71
2022/03/01 05:55:43;;;;;;;32.23;12.67;;;-1.80;99.90;;;;;;4987883;28;20549;-71
2022/03/01 05:58:10;;;;;;;29.20;12.17;;;-1.80;99.90;;;;;;4989382;28;20462;-71
2022/03/01 06:00:37;;;;;;;27.03;11.73;;;-1.80;99.90;;;;;;4989391;28;20525;-71
2022/03/01 06:03:05;;;;;;;26.30;10.53;;;-1.70;99.90;;;;;;4989413;28;20538;-71
2022/03/01 06:05:32;;;;;;;24.77;11.87;;;-1.80;99.90;;;;;;4989501;28;20541;-71
2022/03/01 06:07:58;;;;;;;27.67;12.13;;;-1.80;99.90;;;;;;4990148;28;20443;-71
2022/03/01 06:10:26;;;;;;;29.63;13.33;;;-1.80;99.90;;;;;;4990072;28;20451;-71
2022/03/01 06:12:52;;;;;;;28.43;11.13;;;-1.80;99.90;;;;;;4989260;28;20478;-71
2022/03/01 06:15:19;;;;;;;24.03;11.90;;;-1.80;99.90;;;;;;4989290;28;20990;-71
2022/03/01 06:17:46;;;;;;;24.83;11.70;;;-1.80;99.90;;;;;;4989902;28;20451;-71
2022/03/01 06:20:14;;;;;;;24.50;11.57;;;-1.80;99.90;;;;;;4993226;28;20455;-71
2022/03/01 06:22:41;;;;;;;26.60;12.83;;;-1.90;99.90;;;;;;4992596;28;20483;-71
2022/03/01 06:25:10;;;;;;;25.03;11.63;;;-1.70;99.90;;;;;;4992686;28;20471;-71
2022/03/01 06:27:37;;;;;;;29.87;13.20;;;-1.70;99.90;;;;;;4993042;28;20446;-71
2022/03/01 06:30:05;;;;;;;23.83;11.80;;;-1.80;99.90;;;;;;4993137;28;20506;-71
2022/03/01 06:32:32;;;;;;;31.20;12.27;;;-1.80;99.90;;;;;;4992661;28;20868;-71
2022/03/01 06:34:59;;;;;;;24.30;11.90;;;-1.70;99.90;;;;;;4992764;28;20536;-71
2022/03/01 06:37:27;;;;;;;40.03;12.40;;;-1.60;99.90;;;;;;4992830;28;20513;-71
2022/03/01 06:39:54;;;;;;;23.30;11.30;;;-1.40;99.90;;;;;;4989971;28;20452;-71
2022/03/01 06:42:20;;;;;;;24.97;13.00;;;-1.00;99.90;;;;;;4991157;28;20479;-71
2022/03/01 06:44:47;;;;;;;29.17;12.57;;;-0.60;99.90;;;;;;4992327;28;20451;-72
2022/03/01 06:47:14;;;;;;;29.83;12.80;;;0.00;99.90;;;;;;4992242;28;20517;-71
2022/03/01 06:49:41;;;;;;;22.73;12.63;;;0.60;99.90;;;;;;4989342;28;20455;-71
2022/03/01 06:52:08;;;;;;;25.93;12.33;;;1.10;99.90;;;;;;4992545;28;20934;-71
2022/03/01 06:54:36;;;;;;;30.07;12.40;;;1.60;99.90;;;;;;4991921;28;20517;-71
2022/03/01 06:57:03;;;;;;;26.17;11.90;;;2.30;99.90;;;;;;4992978;28;20537;-71
2022/03/01 06:59:29;;;;;;;28.63;13.27;;;2.80;99.90;;;;;;4993200;28;20546;-71
2022/03/01 07:01:56;;;;;;;24.17;12.27;;;3.30;99.90;;;;;;4993646;28;20494;-72
2022/03/01 07:04:23;;;;;;;25.40;12.43;;;3.80;99.90;;;;;;4992929;28;20459;-72
2022/03/01 07:06:49;;;;;;;29.03;13.10;;;4.30;99.90;;;;;;4993573;28;20537;-72
2022/03/01 07:09:16;;;;;;;26.07;12.10;;;4.60;99.90;;;;;;4993560;28;20455;-72
2022/03/01 07:11:44;;;;;;;26.93;13.03;;;4.60;99.90;;;;;;4993422;28;21019;-72
2022/03/01 07:14:10;;;;;;;27.03;13.40;;;5.40;99.90;;;;;;4993057;28;20440;-72
2022/03/01 07:16:37;;;;;;;23.30;11.20;;;6.00;99.90;;;;;;4993505;28;20467;-72
2022/03/01 07:19:04;;;;;;;31.60;13.60;;;6.60;99.90;;;;;;4993442;28;20463;-71
2022/03/01 07:21:30;;;;;;;33.80;14.07;;;6.70;99.90;;;;;;4993490;28;20455;-71
2022/03/01 07:23:57;;;;;;;26.27;13.40;;;7.30;99.90;;;;;;4993060;28;20494;-72
2022/03/01 07:26:23;;;;;;;26.87;12.70;;;7.40;99.90;;;;;;4993129;28;20533;-72
2022/03/01 07:28:51;;;;;;;27.40;12.20;;;7.30;99.90;;;;;;4992799;28;20513;-72
2022/03/01 07:31:18;;;;;;;31.17;13.73;;;7.40;99.90;;;;;;4993483;28;20501;-72
2022/03/01 07:33:45;;;;;;;24.10;11.80;;;7.50;99.90;;;;;;4993085;28;20943;-71
2022/03/01 07:36:11;;;;;;;19.80;11.00;;;7.80;99.90;;;;;;4993305;28;20467;-71
2022/03/01 07:38:38;;;;;;;24.30;10.90;;;7.50;99.90;;;;;;4993195;28;20513;-75
2022/03/01 07:41:05;;;;;;;28.63;12.93;;;7.00;99.90;;;;;;4993004;28;20505;-74
2022/03/01 07:43:32;;;;;;;23.63;11.47;;;6.60;99.90;;;;;;4992650;28;20483;-74
2022/03/01 07:45:59;;;;;;;25.07;12.50;;;6.80;99.90;;;;;;4993230;28;20900;-74
2022/03/01 07:48:26;;;;;;;23.37;11.93;;;7.40;99.90;;;;;;4992766;28;21014;-73
2022/03/01 07:50:53;;;;;;;22.97;11.40;;;8.00;99.90;;;;;;4992833;28;20510;-73
2022/03/01 07:53:19;;;;;;;23.30;12.03;;;8.40;99.90;;;;;;4992171;28;20510;-73
2022/03/01 07:55:46;;;;;;;21.70;11.90;;;8.40;99.90;;;;;;4992833;28;20549;-73
2022/03/01 07:58:13;;;;;;;20.60;11.43;;;8.30;99.90;;;;;;4992717;28;20459;-73
2022/03/01 08:00:39;;;;;;;23.87;11.40;;;8.10;99.90;;;;;;4992738;28;20459;-73
2022/03/01 08:03:07;;;;;;;25.57;12.90;;;7.60;99.90;;;;;;4992295;28;21119;-73
2022/03/01 08:05:34;;;;;;;20.97;11.43;;;7.70;99.90;;;;;;4991587;28;20545;-73
2022/03/01 08:08:01;;;;;;;24.10;11.40;;;7.60;99.90;;;;;;4992265;28;20451;-74
2022/03/01 08:10:28;;;;;;;23.07;11.10;;;7.30;99.90;;;;;;4992514;28;20457;-73
2022/03/01 08:12:55;;;;;;;23.10;11.30;;;7.20;99.90;;;;;;4992277;28;20501;-73
2022/03/01 08:15:25;;;;;;;23.03;12.03;;;7.00;99.90;;;;;;4992027;28;20470;-73
2022/03/01 08:17:54;;;;;;;27.80;12.53;;;6.70;99.90;;;;;;4992095;28;20462;-73
2022/03/01 08:20:24;;;;;;;23.13;12.30;;;6.50;99.90;;;;;;4992096;28;20451;-72
2022/03/01 08:22:50;;;;;;;21.87;11.90;;;6.40;99.90;;;;;;4992182;28;20541;-73
2022/03/01 08:25:18;;;;;;;20.47;11.00;;;6.20;99.90;;;;;;4992012;28;20479;-73
2022/03/01 08:27:44;;;;;;;21.50;11.07;;;6.00;99.90;;;;;;4992143;28;20521;-73
2022/03/01 08:30:12;;;;;;;19.50;11.03;;;5.70;99.90;;;;;;4992193;28;20509;-73
2022/03/01 08:32:39;;;;;;;21.07;11.80;;;5.60;99.90;;;;;;4991791;28;21010;-73
2022/03/01 08:35:06;;;;;;;19.73;11.33;;;5.50;99.90;;;;;;4991574;28;20501;-73
2022/03/01 08:37:34;;;;;;;19.37;11.00;;;5.30;99.90;;;;;;4991825;28;20956;-73
2022/03/01 08:40:01;;;;;;;21.10;10.73;;;5.20;99.90;;;;;;4991964;28;20447;-73
2022/03/01 08:42:28;;;;;;;26.17;11.90;;;5.00;99.90;;;;;;4990990;28;20470;-72
2022/03/01 08:44:55;;;;;;;22.70;11.47;;;4.80;99.90;;;;;;4991665;28;20459;-73
2022/03/01 08:47:23;;;;;;;20.93;11.37;;;4.60;99.90;;;;;;4991521;28;20517;-74
2022/03/01 08:49:50;;;;;;;20.80;10.47;;;4.70;99.90;;;;;;4991889;28;20459;-73
2022/03/01 08:52:17;;;;;;;23.90;11.07;;;4.70;99.90;;;;;;4991903;28;20458;-73
2022/03/01 08:54:45;;;;;;;25.83;11.17;;;4.60;99.90;;;;;;4991230;28;20447;-74
2022/03/01 08:57:11;;;;;;;19.60;10.20;;;4.80;99.90;;;;;;4991695;28;20693;-72
2022/03/01 08:59:38;;;;;;;21.80;10.90;;;4.60;99.90;;;;;;4991640;28;20525;-73
2022/03/01 09:02:05;;;;;;;18.60;10.47;;;4.30;99.90;;;;;;4991573;28;20517;-73
2022/03/01 09:04:31;;;;;;;22.67;10.97;;;4.40;99.90;;;;;;4990868;28;20487;-73
2022/03/01 09:06:58;;;;;;;23.90;11.67;;;4.40;99.90;;;;;;4991780;28;20790;-73
2022/03/01 09:09:25;;;;;;;17.97;11.23;;;4.40;99.90;;;;;;4991537;28;20451;-73
2022/03/01 09:11:53;;;;;;;20.77;10.77;;;4.70;99.90;;;;;;4991504;28;20455;-73
2022/03/01 09:14:19;;;;;;;22.40;10.47;;;4.50;99.90;;;;;;4990986;28;20886;-73
2022/03/01 09:16:46;;;;;;;22.67;11.10;;;4.60;99.90;;;;;;4991335;28;20964;-73
2022/03/01 09:19:14;;;;;;;18.53;10.83;;;4.50;99.90;;;;;;4991394;28;20451;-73
2022/03/01 09:21:41;;;;;;;18.70;10.40;;;4.70;99.90;;;;;;4991430;28;20482;-73
2022/03/01 09:24:08;;;;;;;17.93;9.93;;;4.80;99.90;;;;;;4990859;28;20500;-73
2022/03/01 09:26:35;;;;;;;18.57;10.23;;;4.80;99.90;;;;;;4991109;28;20536;-73
2022/03/01 09:29:03;;;;;;;17.13;9.63;;;4.70;99.90;;;;;;4991276;28;20451;-72
2022/03/01 09:31:30;;;;;;;23.77;10.40;;;4.70;99.90;;;;;;4991161;28;20958;-74
2022/03/01 09:33:57;;;;;;;20.83;11.40;;;4.50;99.90;;;;;;4991147;28;20489;-73
2022/03/01 09:36:23;;;;;;;17.80;10.30;;;4.60;99.90;;;;;;4991350;28;20529;-72
2022/03/01 09:38:51;;;;;;;22.73;11.27;;;4.60;99.90;;;;;;4991038;28;20459;-73
2022/03/01 09:41:17;;;;;;;18.70;10.40;;;4.80;99.90;;;;;;4991020;28;20509;-73
2022/03/01 09:43:44;;;;;;;23.23;10.43;;;4.80;99.90;;;;;;4990739;28;21069;-73
2022/03/01 09:46:12;;;;;;;19.20;10.70;;;4.90;99.90;;;;;;4991221;28;20474;-73
2022/03/01 09:48:39;;;;;;;20.70;10.80;;;4.90;99.90;;;;;;4991114;28;20468;-73
2022/03/01 09:51:08;;;;;;;19.03;10.93;;;5.00;99.90;;;;;;4991097;28;20845;-72
2022/03/01 09:53:35;;;;;;;17.80;9.37;;;5.00;99.90;;;;;;4993077;28;20498;-73
2022/03/01 09:56:04;;;;;;;19.20;9.83;;;5.10;99.90;;;;;;4994841;28;21042;-73
2022/03/01 09:58:31;;;;;;;19.50;10.80;;;5.00;99.90;;;;;;4994786;28;20455;-73
2022/03/01 10:00:58;;;;;;;15.30;8.90;;;5.10;99.90;;;;;;4994795;28;20524;-74
2022/03/01 10:03:28;;;;;;;23.77;11.67;;;5.20;99.90;;;;;;4994224;28;20482;-73
2022/03/01 10:05:55;;;;;;;22.20;11.17;;;5.20;99.90;;;;;;4995160;28;20963;-73
2022/03/01 10:08:22;;;;;;;24.60;10.43;;;5.20;99.90;;;;;;4994813;28;20469;-74
2022/03/01 10:10:50;;;;;;;22.70;11.10;;;5.00;99.90;;;;;;4994822;28;20840;-73
2022/03/01 10:13:23;;;;;;;19.00;10.63;;;5.00;99.90;;;;;;4994448;28;20493;-73
2022/03/01 10:15:52;;;;;;;18.33;10.47;;;5.00;99.90;;;;;;4994555;28;20477;-73
2022/03/01 10:18:19;;;;;;;16.60;10.00;;;5.20;99.90;;;;;;4994291;28;20455;-73
2022/03/01 10:20:47;;;;;;;17.90;10.23;;;5.50;99.90;;;;;;4994539;28;20454;-73
2022/03/01 10:23:21;;;;;;;17.37;9.50;;;5.70;99.90;;;;;;4994284;28;20546;-73
2022/03/01 10:25:48;;;;;;;19.93;10.70;;;5.90;99.90;;;;;;4994308;28;20463;-73
2022/03/01 10:28:14;;;;;;;22.23;10.60;;;6.10;99.90;;;;;;4994276;28;20451;-73
2022/03/01 10:30:41;;;;;;;18.33;10.20;;;6.30;99.90;;;;;;4993977;28;20505;-73
2022/03/01 10:33:10;;;;;;;19.60;10.87;;;6.60;99.90;;;;;;4994637;28;20454;-73
2022/03/01 10:35:38;;;;;;;24.37;10.60;;;6.80;99.90;;;;;;4994278;28;20479;-73
2022/03/01 10:38:07;;;;;;;19.00;10.03;;;7.10;99.90;;;;;;4994563;28;20447;-73
2022/03/01 10:40:36;;;;;;;17.93;10.43;;;7.30;99.90;;;;;;4994129;28;20459;-73
2022/03/01 10:43:07;;;;;;;16.23;9.80;;;7.50;99.90;;;;;;4994221;28;20513;-73
2022/03/01 10:45:36;;;;;;;20.03;10.40;;;7.80;99.90;;;;;;4994085;28;20477;-73
2022/03/01 10:48:05;;;;;;;16.93;9.40;;;7.80;99.90;;;;;;4994017;28;20928;-73
2022/03/01 10:50:32;;;;;;;19.60;10.20;;;8.00;99.90;;;;;;4993889;28;21018;-73
2022/03/01 10:53:00;;;;;;;19.50;10.83;;;8.00;99.90;;;;;;4994127;28;20458;-74
2022/03/01 10:55:30;;;;;;;15.87;9.40;;;7.90;99.90;;;;;;4993434;28;20471;-72
2022/03/01 10:57:59;;;;;;;17.30;10.17;;;7.70;99.90;;;;;;4993870;28;20451;-73
2022/03/01 11:00:26;;;;;;;20.43;10.00;;;8.00;99.90;;;;;;4993597;28;20955;-74
2022/03/01 11:02:52;;;;;;;17.23;9.50;;;8.40;99.90;;;;;;4993555;28;20509;-73
2022/03/01 11:05:20;;;;;;;24.70;10.23;;;8.70;99.90;;;;;;4992137;28;20502;-73
2022/03/01 11:07:49;;;;;;;17.10;10.20;;;8.70;99.90;;;;;;4993625;28;20853;-73
2022/03/01 11:10:17;;;;;;;17.83;9.97;;;8.80;98.70;;;;;;4993785;28;20454;-72
2022/03/01 11:12:48;;;;;;;16.77;9.43;;;9.20;99.50;;;;;;4993751;28;20518;-73
2022/03/01 11:15:24;;;;;;;16.80;9.90;;;9.20;99.10;;;;;;4993589;28;20542;-73
2022/03/01 11:17:58;;;;;;;20.00;10.83;;;9.10;98.30;;;;;;4993615;28;20455;-73
2022/03/01 11:20:30;;;;;;;15.70;8.90;;;8.90;98.80;;;;;;4993273;28;20478;-72
2022/03/01 11:23:00;;;;;;;18.67;9.87;;;8.80;99.40;;;;;;4993709;28;20459;-73
2022/03/01 11:25:28;;;;;;;17.10;9.80;;;8.60;99.20;;;;;;4993097;28;20522;-73
2022/03/01 11:28:03;;;;;;;21.50;10.47;;;8.70;99.20;;;;;;4993292;28;20455;-72
2022/03/01 11:30:33;;;;;;;16.83;8.33;;;8.80;99.20;;;;;;4993176;28;20474;-72
2022/03/01 11:33:00;;;;;;;15.70;9.93;;;8.90;97.80;;;;;;4993558;28;20467;-72
2022/03/01 11:35:29;;;;;;;17.17;9.87;;;8.90;97.80;;;;;;4992997;28;20475;-73
2022/03/01 11:38:01;;;;;;;15.17;9.10;;;9.00;97.50;;;;;;4993299;28;20455;-72
2022/03/01 11:40:31;;;;;;;16.07;9.80;;;8.70;97.00;;;;;;4992839;28;20509;-73
2022/03/01 11:43:09;;;;;;;17.47;10.47;;;8.40;97.60;;;;;;4992998;28;20455;-73
2022/03/01 11:45:37;;;;;;;16.43;9.00;;;8.30;97.90;;;;;;4992627;28;20565;-73
2022/03/01 11:48:05;;;;;;;14.50;9.43;;;8.00;97.90;;;;;;4993149;28;20451;-73
2022/03/01 11:50:32;;;;;;;23.70;9.57;;;7.80;97.70;;;;;;4992759;28;21025;-73
2022/03/01 11:53:05;;;;;;;17.30;9.60;;;7.70;98.30;;;;;;4992736;28;20501;-73
2022/03/01 11:55:41;;;;;;;15.67;8.83;;;7.50;98.80;;;;;;4992891;28;20506;-73
2022/03/01 11:58:10;;;;;;;16.50;9.87;;;7.40;98.50;;;;;;4992861;28;20478;-73
2022/03/01 12:00:39;;;;;;;15.13;9.50;;;7.10;99.20;;;;;;4992719;28;20451;-73
2022/03/01 12:03:09;;;;;;;14.97;8.97;;;7.20;99.90;;;;;;4992549;28;20478;-73
2022/03/01 12:05:37;;;;;;;14.87;9.00;;;7.30;98.90;;;;;;4991970;28;20652;-74
2022/03/01 12:08:07;;;;;;;15.17;8.80;;;7.50;99.70;;;;;;4992459;28;21015;-74
2022/03/01 12:10:34;;;;;;;14.73;9.10;;;7.80;99.10;;;;;;4992428;28;20474;-72
2022/03/01 12:13:05;;;;;;;13.77;8.53;;;7.90;99.20;;;;;;4992458;28;20971;-73
2022/03/01 12:15:34;;;;;;;13.93;8.90;;;8.20;99.50;;;;;;4973069;28;20464;-72
2022/03/01 12:18:12;;;;;;;14.90;8.93;;;8.40;97.80;;;;;;4973401;28;20514;-73
2022/03/01 12:20:41;;;;;;;17.20;9.27;;;8.30;98.50;;;;;;4972676;28;20459;-72
2022/03/01 12:23:07;;;;;;;13.43;7.90;;;8.20;96.20;;;;;;4972824;28;20448;-72
2022/03/01 12:25:36;;;;;;;14.00;9.00;;;8.20;97.50;;;;;;4972273;28;20570;-72
2022/03/01 12:28:04;;;;;;;11.83;8.00;;;8.10;96.30;;;;;;4972586;28;20452;-72
2022/03/01 12:30:39;;;;;;;14.60;8.77;;;8.20;97.60;;;;;;4972468;28;20459;-72
2022/03/01 12:33:13;;;;;;;15.30;8.00;;;8.40;96.60;;;;;;4972758;28;20867;-72
2022/03/01 12:35:40;;;;;;;16.40;8.90;;;8.50;96.30;;;;;;4972787;28;20482;-72